createdAt,value
2023-03-24T00:01:11.494Z,66.66
2023-03-24T00:06:13.292Z,66.46
2023-03-24T00:11:11.845Z,66.91
2023-03-24T00:16:12.050Z,67.09
2023-03-24T00:21:10.982Z,67.92
2023-03-24T00:26:11.832Z,68.02
2023-03-24T00:31:10.397Z,67.88
2023-03-24T00:36:11.397Z,68.18
2023-03-24T00:41:10.015Z,67.59
2023-03-24T00:46:10.848Z,67.71
2023-03-24T00:51:10.260Z,67.89
2023-03-24T00:56:08.525Z,67.21
2023-03-24T01:01:06.529Z,66.63
2023-03-24T01:06:04.649Z,67.14
2023-03-24T01:11:04.146Z,67.11
2023-03-24T01:16:01.295Z,67.31
2023-03-24T01:20:58.712Z,67.54
2023-03-24T01:25:55.523Z,67.79
2023-03-24T01:30:54.083Z,67.86
2023-03-24T01:35:51.054Z,67.91
2023-03-24T01:40:48.217Z,68.50
2023-03-24T01:46:13.031Z,68.13
2023-03-24T01:51:14.997Z,68.09
2023-03-24T01:56:13.157Z,67.36
2023-03-24T02:01:13.889Z,67.72
2023-03-24T02:06:34.699Z,67.95
2023-03-24T02:11:35.566Z,68.30
2023-03-24T02:16:49.388Z,68.38
2023-03-24T02:22:28.664Z,67.95
2023-03-24T02:27:45.530Z,67.78
2023-03-24T02:33:06.470Z,67.94
2023-03-24T02:38:24.497Z,67.62
2023-03-24T02:43:33.223Z,67.63
2023-03-24T02:48:37.202Z,67.26
2023-03-24T02:53:43.231Z,66.95
2023-03-24T02:58:58.161Z,67.12
2023-03-24T03:03:59.163Z,67.24
2023-03-24T03:08:59.828Z,67.58
2023-03-24T03:14:02.213Z,67.16
2023-03-24T03:19:02.986Z,66.58
2023-03-24T03:24:06.236Z,66.14
2023-03-24T03:29:11.416Z,66.50
2023-03-24T03:34:17.271Z,67.09
2023-03-24T03:39:19.238Z,67.31
2023-03-24T03:44:17.149Z,67.12
2023-03-24T03:49:14.315Z,67.49
2023-03-24T03:54:14.194Z,67.98
2023-03-24T03:59:24.402Z,68.17
2023-03-24T04:04:53.255Z,67.98
2023-03-24T04:10:21.049Z,67.96
2023-03-24T04:15:43.480Z,67.63
2023-03-24T04:21:15.497Z,67.91
2023-03-24T04:26:25.646Z,67.94
2023-03-24T04:31:29.435Z,68.30
2023-03-24T04:36:33.863Z,68.48
2023-03-24T04:41:52.556Z,68.67
2023-03-24T04:47:02.065Z,68.21
2023-03-24T04:51:59.387Z,67.88
2023-03-24T04:57:01.106Z,67.12
2023-03-24T05:02:00.943Z,67.84
2023-03-24T05:07:01.104Z,67.97
2023-03-24T05:11:59.276Z,68.11
2023-03-24T05:17:01.458Z,66.83
2023-03-24T05:21:59.214Z,67.65
2023-03-24T05:26:59.578Z,67.15
2023-03-24T05:32:08.805Z,65.76
2023-03-24T05:37:13.701Z,61.85
2023-03-24T05:42:15.674Z,55.78
2023-03-24T05:47:21.364Z,51.22
2023-03-24T05:52:22.064Z,48.13
2023-03-24T05:57:21.147Z,45.35
2023-03-24T06:02:39.300Z,43.70
2023-03-24T06:07:51.897Z,42.10
2023-03-24T06:12:50.438Z,42.09
2023-03-24T06:17:49.552Z,43.59
2023-03-24T06:23:03.009Z,44.89
2023-03-24T06:28:13.697Z,44.62
2023-03-24T06:33:13.387Z,45.71
2023-03-24T06:38:13.808Z,46.17
2023-03-24T06:43:11.731Z,45.93
2023-03-24T06:48:11.975Z,43.70
2023-03-24T06:53:09.316Z,41.15
2023-03-24T06:58:08.174Z,37.87
2023-03-24T07:03:26.453Z,34.25
2023-03-24T07:08:46.384Z,32.43
2023-03-24T07:13:44.063Z,28.89
2023-03-24T07:18:41.581Z,28.00
2023-03-24T07:23:43.572Z,28.16
2023-03-24T07:28:44.557Z,26.21
2023-03-24T07:33:43.351Z,25.67
2023-03-24T07:38:40.346Z,23.79
2023-03-24T07:43:41.979Z,23.11
2023-03-24T07:49:01.281Z,22.92
2023-03-24T07:54:05.995Z,22.06
2023-03-24T07:59:09.877Z,22.08
2023-03-24T08:04:31.930Z,21.46
2023-03-24T08:09:51.958Z,20.65
2023-03-24T08:14:48.750Z,20.18
2023-03-24T08:19:59.113Z,20.37
2023-03-24T08:25:03.398Z,19.83
2023-03-24T08:30:00.434Z,19.06
2023-03-24T08:34:58.490Z,19.16
2023-03-24T08:40:00.207Z,18.96
2023-03-24T08:44:58.038Z,19.23
2023-03-24T08:50:12.217Z,17.94
2023-03-24T08:55:23.646Z,17.69
2023-03-24T09:00:22.291Z,18.40
2023-03-24T09:05:32.869Z,17.58
2023-03-24T09:10:34.153Z,17.90
2023-03-24T09:15:35.542Z,17.58
2023-03-24T09:20:33.461Z,17.59
2023-03-24T09:25:32.564Z,17.52
2023-03-24T09:30:30.992Z,18.08
2023-03-24T09:35:29.224Z,18.18
2023-03-24T09:40:29.299Z,17.74
2023-03-24T09:45:28.883Z,18.47
2023-03-24T09:50:28.869Z,18.08
2023-03-24T09:55:28.842Z,17.96
2023-03-24T10:00:28.790Z,17.95
2023-03-24T10:05:31.107Z,18.05
2023-03-24T10:10:35.089Z,18.75
2023-03-24T10:15:38.577Z,18.62
2023-03-24T10:20:44.090Z,18.95
2023-03-24T10:25:51.248Z,18.41
2023-03-24T10:30:50.370Z,17.98
2023-03-24T10:35:55.613Z,18.21
2023-03-24T10:40:54.511Z,18.81
2023-03-24T10:45:53.563Z,18.57
2023-03-24T10:50:51.535Z,19.61
2023-03-24T10:55:50.137Z,20.45
2023-03-24T11:00:48.968Z,21.21
2023-03-24T11:05:46.483Z,22.20
2023-03-24T11:10:46.633Z,23.13
2023-03-24T11:15:55.191Z,23.52
2023-03-24T11:21:35.091Z,24.24
2023-03-24T11:26:36.272Z,24.68
2023-03-24T11:31:40.182Z,25.27
2023-03-24T11:37:05.041Z,25.50
2023-03-24T11:42:06.222Z,25.90
2023-03-24T11:47:13.051Z,26.34
2023-03-24T11:52:20.056Z,26.75
2023-03-24T11:57:28.790Z,27.39
2023-03-24T12:02:48.017Z,27.31
2023-03-24T12:08:11.347Z,27.92
2023-03-24T12:13:22.182Z,27.96
2023-03-24T12:18:58.120Z,28.50
2023-03-24T12:23:58.726Z,29.30
2023-03-24T12:29:05.361Z,28.91
2023-03-24T12:34:15.481Z,28.85
2023-03-24T12:39:16.658Z,29.70
2023-03-24T12:44:50.725Z,28.95
2023-03-24T12:50:00.691Z,28.48
2023-03-24T12:55:04.022Z,28.71
2023-03-24T13:00:08.782Z,28.24
2023-03-24T13:05:18.641Z,27.01
2023-03-24T13:10:19.876Z,28.60
2023-03-24T13:15:21.014Z,27.91
2023-03-24T13:20:26.724Z,28.04
2023-03-24T13:25:33.147Z,28.46
2023-03-24T13:36:15.141Z,28.62
2023-03-24T13:41:23.501Z,29.21
2023-03-24T13:46:20.807Z,29.69
2023-03-24T13:51:27.961Z,29.74
2023-03-24T13:56:31.317Z,29.52
2023-03-24T14:01:34.296Z,29.80
2023-03-24T14:06:46.575Z,30.26
2023-03-24T14:11:48.959Z,30.61
2023-03-24T14:17:02.072Z,29.51
2023-03-24T14:22:11.340Z,30.10
2023-03-24T14:27:34.157Z,30.41
2023-03-24T14:32:38.656Z,30.70
2023-03-24T14:37:47.810Z,30.74
2023-03-24T14:43:05.514Z,30.27
2023-03-24T14:48:06.196Z,31.01
2023-03-24T14:53:04.309Z,30.70
2023-03-24T14:58:11.720Z,30.78
2023-03-24T15:03:18.920Z,31.38
2023-03-24T15:08:20.923Z,30.78
2023-03-24T15:13:41.182Z,31.57
2023-03-24T15:18:57.673Z,31.44
2023-03-24T15:24:00.486Z,31.55
2023-03-24T15:28:59.956Z,30.89
2023-03-24T15:34:08.493Z,31.46
2023-03-24T15:39:20.363Z,31.55
2023-03-24T15:44:20.871Z,32.01
2023-03-24T15:49:25.576Z,32.16
2023-03-24T15:54:25.729Z,32.75
2023-03-24T15:59:25.136Z,32.60
2023-03-24T16:04:24.965Z,33.18
2023-03-24T16:09:26.753Z,33.27
2023-03-24T16:14:26.099Z,32.67
2023-03-24T16:19:23.470Z,32.55
2023-03-24T16:24:20.650Z,33.49
2023-03-24T16:29:19.650Z,33.89
2023-03-24T16:34:18.121Z,33.83
2023-03-24T16:39:16.469Z,34.01
2023-03-24T16:44:13.965Z,34.82
2023-03-24T16:49:14.839Z,36.14
2023-03-24T16:54:11.850Z,36.29
2023-03-24T16:59:09.946Z,37.19
2023-03-24T17:04:09.160Z,37.11
2023-03-24T17:09:07.617Z,37.85
2023-03-24T17:14:07.894Z,38.04
2023-03-24T17:19:05.126Z,38.75
2023-03-24T17:24:03.189Z,39.48
2023-03-24T17:29:06.913Z,39.87
2023-03-24T17:34:15.199Z,40.26
2023-03-24T17:39:19.837Z,40.84
2023-03-24T17:44:17.875Z,40.80
2023-03-24T17:49:23.233Z,41.28
2023-03-24T17:54:33.318Z,42.07
2023-03-24T17:59:31.125Z,42.36
2023-03-24T18:04:28.605Z,42.61
2023-03-24T18:09:31.601Z,42.55
2023-03-24T18:14:31.408Z,42.00
2023-03-24T18:19:35.877Z,41.66
2023-03-24T18:24:54.163Z,41.37
2023-03-24T18:29:55.991Z,41.35
2023-03-24T18:35:05.366Z,41.34
2023-03-24T18:40:09.169Z,41.14
2023-03-24T18:45:08.304Z,41.30
2023-03-24T18:50:09.860Z,41.25
2023-03-24T18:55:20.343Z,41.24
2023-03-24T19:00:19.766Z,41.04
2023-03-24T19:05:18.932Z,41.07
2023-03-24T19:10:21.369Z,41.03
2023-03-24T19:15:25.109Z,41.07
2023-03-24T19:20:24.318Z,41.40
2023-03-24T19:25:24.329Z,41.65
2023-03-24T19:30:25.999Z,41.89
2023-03-24T19:35:23.207Z,42.05
2023-03-24T19:40:23.018Z,42.42
2023-03-24T19:45:20.788Z,42.37
2023-03-24T19:50:18.764Z,42.43
2023-03-24T19:55:16.137Z,42.63
2023-03-24T20:00:16.322Z,42.90
2023-03-24T20:05:14.087Z,43.01
2023-03-24T20:10:13.086Z,43.03
2023-03-24T20:15:10.840Z,43.38
2023-03-24T20:20:12.946Z,43.63
2023-03-24T20:25:12.030Z,44.20
2023-03-24T20:30:10.326Z,44.87
2023-03-24T20:35:12.291Z,45.55
2023-03-24T20:40:10.328Z,46.17
2023-03-24T20:45:10.537Z,46.90
2023-03-24T20:50:08.842Z,47.33
2023-03-24T20:55:08.310Z,47.78
2023-03-24T21:00:13.368Z,48.40
2023-03-24T21:05:11.406Z,48.75
2023-03-24T21:10:09.243Z,49.14
2023-03-24T21:15:07.691Z,49.43
2023-03-24T21:20:08.387Z,49.58
2023-03-24T21:25:07.006Z,49.65
2023-03-24T21:30:04.822Z,49.79
2023-03-24T21:35:01.760Z,50.02
2023-03-24T21:40:01.998Z,50.07
2023-03-24T21:44:59.643Z,50.12
2023-03-24T21:49:58.489Z,50.36
2023-03-24T21:54:57.554Z,50.64
2023-03-24T21:59:54.541Z,50.61
2023-03-24T22:04:52.209Z,50.21
2023-03-24T22:09:50.060Z,50.63
2023-03-24T22:14:47.169Z,50.01
2023-03-24T22:19:44.166Z,50.01
2023-03-24T22:24:41.687Z,50.01
2023-03-24T22:29:39.895Z,50.19
2023-03-24T22:34:36.722Z,50.06
2023-03-24T22:39:33.839Z,50.48
2023-03-24T22:44:31.410Z,50.55
2023-03-24T22:49:28.759Z,50.82
2023-03-24T22:54:26.311Z,50.88
2023-03-24T22:59:24.042Z,50.96
2023-03-24T23:04:21.584Z,50.89
2023-03-24T23:09:18.556Z,50.83
2023-03-24T23:14:17.757Z,50.85
2023-03-24T23:19:14.725Z,50.75
2023-03-24T23:24:12.363Z,51.07
2023-03-24T23:29:09.219Z,51.01
2023-03-24T23:34:06.951Z,50.89
2023-03-24T23:39:04.214Z,51.04
2023-03-24T23:44:01.956Z,51.07
2023-03-24T23:48:58.913Z,51.40
2023-03-24T23:53:55.752Z,51.82
2023-03-24T23:58:52.631Z,51.77
